Time;durP1;ratioP1;P1;durP2;ratioP2;P2;SDS_P1;SDS_P2;PMS_P1;PMS_P2;Temp;Humidity;BMP_temperature;BMP_pressure;BME280_temperature;BME280_humidity;BME280_pressure;Samples;Min_cycle;Max_cycle;Signal;HPM_P1;HPM_P2
2021/06/24 00:01:14;;;;;;;0.50;0.40;;;17.10;99.90;;;;;;5055313;28;20450;-78
2021/06/24 00:03:41;;;;;;;0.50;0.30;;;17.00;99.90;;;;;;5055360;28;20452;-77
2021/06/24 00:06:09;;;;;;;0.50;0.40;;;17.00;99.90;;;;;;5055668;28;20480;-78
2021/06/24 00:08:36;;;;;;;0.50;0.40;;;17.10;99.90;;;;;;5055373;28;20436;-77
2021/06/24 00:11:05;;;;;;;0.50;0.40;;;17.10;99.90;;;;;;5055350;28;20429;-77
2021/06/24 00:13:33;;;;;;;1.00;0.90;;;17.10;99.90;;;;;;5055464;28;20457;-77
2021/06/24 00:16:00;;;;;;;0.50;0.30;;;17.00;99.90;;;;;;5055515;28;20436;-77
2021/06/24 00:18:27;;;;;;;0.50;0.30;;;17.00;99.90;;;;;;5055067;28;20758;-77
2021/06/24 00:20:54;;;;;;;0.87;0.87;;;17.00;99.90;;;;;;5055347;28;20447;-78
2021/06/24 00:23:22;;;;;;;0.50;0.40;;;17.00;99.90;;;;;;5054851;28;20998;-77
2021/06/24 00:25:50;;;;;;;0.50;0.30;;;17.00;99.90;;;;;;5054956;28;20516;-78
2021/06/24 00:28:18;;;;;;;0.50;0.30;;;17.00;99.90;;;;;;5055408;28;20436;-77
2021/06/24 00:30:46;;;;;;;0.90;0.53;;;17.00;99.90;;;;;;5055094;28;20444;-77
2021/06/24 00:33:14;;;;;;;1.93;1.83;;;16.90;99.90;;;;;;5054558;28;20462;-77
2021/06/24 00:35:41;;;;;;;0.50;0.40;;;16.90;99.90;;;;;;5054746;28;20430;-76
2021/06/24 00:38:08;;;;;;;0.50;0.30;;;16.70;99.90;;;;;;5054389;28;20432;-74
2021/06/24 00:40:37;;;;;;;0.70;0.70;;;16.70;99.90;;;;;;5055291;28;20433;-77
2021/06/24 00:43:06;;;;;;;0.50;0.40;;;16.70;99.90;;;;;;5054878;28;20459;-77
2021/06/24 00:45:33;;;;;;;0.50;0.30;;;16.70;99.90;;;;;;5055146;28;20480;-79
2021/06/24 00:48:00;;;;;;;0.50;0.30;;;16.70;99.90;;;;;;5054500;28;20518;-77
2021/06/24 00:50:27;;;;;;;0.50;0.40;;;16.70;99.90;;;;;;5055393;28;20444;-77
2021/06/24 00:52:54;;;;;;;0.50;0.33;;;16.60;99.90;;;;;;5054818;28;20449;-77
2021/06/24 00:55:40;;;;;;;0.50;0.40;;;16.70;99.90;;;;;;5054080;28;20956;-77
2021/06/24 00:58:08;;;;;;;0.60;0.57;;;16.70;99.90;;;;;;5055199;28;20486;-77
2021/06/24 01:00:36;;;;;;;0.50;0.30;;;16.70;99.90;;;;;;5060706;28;20449;-77
2021/06/24 01:03:03;;;;;;;0.50;0.30;;;16.70;99.90;;;;;;5054050;28;20841;-77
2021/06/24 01:05:30;;;;;;;0.50;0.30;;;16.70;99.90;;;;;;5054758;28;20476;-78
2021/06/24 01:07:57;;;;;;;0.50;0.40;;;16.70;99.90;;;;;;5053583;28;20443;-78
2021/06/24 01:10:24;;;;;;;0.50;0.30;;;16.70;99.90;;;;;;5054584;28;20449;-78
2021/06/24 01:12:51;;;;;;;0.50;0.40;;;16.70;99.90;;;;;;5053867;28;20464;-77
2021/06/24 01:15:19;;;;;;;0.60;0.57;;;16.80;99.90;;;;;;5054146;28;20441;-78
2021/06/24 01:17:46;;;;;;;0.50;0.40;;;16.80;99.90;;;;;;5053880;28;20444;-78
2021/06/24 01:20:14;;;;;;;0.50;0.40;;;16.70;99.90;;;;;;5054597;28;20440;-77
2021/06/24 01:22:40;;;;;;;0.50;0.40;;;16.70;99.90;;;;;;5053705;28;20468;-78
2021/06/24 01:25:09;;;;;;;0.50;0.40;;;16.80;99.90;;;;;;5053806;28;20945;-79
2021/06/24 01:27:36;;;;;;;0.50;0.30;;;16.70;99.90;;;;;;5053678;28;20436;-77
2021/06/24 01:30:04;;;;;;;0.50;0.40;;;16.70;99.90;;;;;;5053829;28;21240;-78
2021/06/24 01:32:31;;;;;;;0.50;0.30;;;16.80;99.90;;;;;;5045383;28;20449;-77
2021/06/24 01:34:58;;;;;;;1.83;1.73;;;16.80;99.90;;;;;;5053566;28;20437;-79
2021/06/24 01:37:24;;;;;;;0.50;0.33;;;16.80;99.90;;;;;;5053480;28;20440;-77
2021/06/24 01:39:51;;;;;;;0.50;0.30;;;16.80;99.90;;;;;;5053305;28;20431;-79
2021/06/24 01:42:19;;;;;;;0.50;0.30;;;16.70;99.90;;;;;;5053757;28;20441;-77
2021/06/24 01:44:46;;;;;;;0.50;0.40;;;16.70;99.90;;;;;;5053749;28;20437;-78
2021/06/24 01:47:14;;;;;;;0.50;0.40;;;16.70;99.90;;;;;;5053394;28;20495;-79
2021/06/24 01:49:41;;;;;;;0.50;0.30;;;16.70;99.90;;;;;;5053102;28;20452;-77
2021/06/24 01:52:08;;;;;;;0.50;0.30;;;16.70;99.90;;;;;;5053397;28;20897;-78
2021/06/24 01:54:35;;;;;;;0.50;0.40;;;16.60;99.90;;;;;;5052528;28;20494;-77
2021/06/24 01:57:01;;;;;;;4.63;3.60;;;16.70;99.90;;;;;;5053277;28;20444;-79
2021/06/24 01:59:32;;;;;;;0.50;0.33;;;16.60;99.90;;;;;;5053540;28;20448;-79
2021/06/24 02:01:59;;;;;;;0.50;0.30;;;16.60;99.90;;;;;;5053188;28;20469;-78
2021/06/24 02:04:29;;;;;;;0.70;0.67;;;16.60;99.90;;;;;;5053176;28;20440;-78
2021/06/24 02:06:56;;;;;;;0.50;0.30;;;16.60;99.90;;;;;;5052053;28;20471;-77
2021/06/24 02:09:22;;;;;;;0.50;0.30;;;16.50;99.90;;;;;;5053603;28;20798;-78
2021/06/24 02:11:49;;;;;;;0.50;0.30;;;16.50;99.90;;;;;;5053163;28;20443;-78
2021/06/24 02:14:16;;;;;;;0.50;0.40;;;16.50;99.90;;;;;;5053147;28;20466;-77
2021/06/24 02:16:44;;;;;;;0.50;0.30;;;16.50;99.90;;;;;;5052783;28;20430;-78
2021/06/24 02:19:10;;;;;;;0.50;0.40;;;16.40;99.90;;;;;;5052703;28;20440;-76
2021/06/24 02:21:37;;;;;;;0.50;0.37;;;16.50;99.90;;;;;;5052963;28;20474;-79
2021/06/24 02:24:05;;;;;;;0.50;0.40;;;16.40;99.90;;;;;;5052617;28;20473;-76
2021/06/24 02:26:31;;;;;;;0.50;0.40;;;16.40;99.90;;;;;;5052495;28;20478;-79
2021/06/24 02:28:58;;;;;;;0.50;0.50;;;16.40;99.90;;;;;;5052944;28;20810;-78
2021/06/24 02:31:27;;;;;;;0.70;0.70;;;16.50;99.90;;;;;;5052713;28;20440;-77
2021/06/24 02:33:56;;;;;;;0.50;0.40;;;16.40;99.90;;;;;;5054703;22;20519;-78
2021/06/24 02:36:22;;;;;;;0.50;0.30;;;16.40;99.90;;;;;;5022248;28;20440;-77
2021/06/24 02:38:49;;;;;;;0.50;0.50;;;16.40;99.90;;;;;;5036428;28;20440;-77
2021/06/24 02:41:16;;;;;;;1.53;1.43;;;16.40;99.90;;;;;;5036898;28;20447;-79
2021/06/24 02:43:42;;;;;;;13.30;1.60;;;16.40;99.90;;;;;;5038406;28;20471;-79
2021/06/24 02:46:09;;;;;;;0.50;0.40;;;16.40;99.90;;;;;;5039159;28;20470;-78
2021/06/24 02:48:36;;;;;;;0.50;0.40;;;16.30;99.90;;;;;;5038185;28;20439;-78
2021/06/24 02:51:05;;;;;;;0.50;0.40;;;16.30;99.90;;;;;;5039527;28;20444;-80
2021/06/24 02:53:32;;;;;;;0.50;0.40;;;16.30;99.90;;;;;;5038195;28;20465;-77
2021/06/24 02:55:58;;;;;;;0.50;0.40;;;16.20;99.90;;;;;;5037917;28;20434;-79
2021/06/24 02:58:25;;;;;;;0.50;0.40;;;16.20;99.90;;;;;;5039379;28;20440;-79
2021/06/24 03:00:52;;;;;;;1.93;1.83;;;16.20;99.90;;;;;;5040099;28;20553;-79
2021/06/24 03:03:19;;;;;;;0.50;0.30;;;16.20;99.90;;;;;;5039806;28;20473;-79
2021/06/24 03:05:45;;;;;;;0.50;0.40;;;16.20;99.90;;;;;;5038913;28;20959;-79
2021/06/24 03:08:13;;;;;;;0.50;0.40;;;16.20;99.90;;;;;;5038298;28;20444;-80
2021/06/24 03:10:40;;;;;;;0.50;0.30;;;16.10;99.90;;;;;;5038732;28;20450;-80
2021/06/24 03:13:07;;;;;;;0.50;0.40;;;16.20;99.90;;;;;;5039019;28;20449;-79
2021/06/24 03:15:36;;;;;;;0.50;0.40;;;16.20;99.90;;;;;;5038456;28;20436;-79
2021/06/24 03:18:03;;;;;;;0.50;0.30;;;16.20;99.90;;;;;;5038192;28;21139;-79
2021/06/24 03:20:30;;;;;;;0.50;0.40;;;16.10;99.90;;;;;;5037934;28;20472;-79
2021/06/24 03:22:58;;;;;;;0.50;0.40;;;16.20;99.90;;;;;;5037317;28;20449;-79
2021/06/24 03:25:27;;;;;;;0.63;0.57;;;16.20;99.90;;;;;;5037677;28;20449;-80
2021/06/24 03:27:54;;;;;;;0.50;0.40;;;16.20;99.90;;;;;;5037470;28;20483;-80
2021/06/24 03:30:22;;;;;;;0.50;0.40;;;16.20;99.90;;;;;;5037123;28;20450;-79
2021/06/24 03:32:49;;;;;;;0.60;0.60;;;16.20;99.90;;;;;;5037478;28;20456;-79
2021/06/24 03:35:16;;;;;;;0.50;0.30;;;16.30;99.90;;;;;;5036801;28;20452;-79
2021/06/24 03:37:43;;;;;;;0.50;0.40;;;16.30;99.90;;;;;;5037461;28;20440;-81
2021/06/24 03:40:16;;;;;;;0.50;0.40;;;16.30;99.90;;;;;;5037596;28;20440;-80
2021/06/24 03:42:45;;;;;;;1.07;0.90;;;16.30;99.90;;;;;;5037397;28;20450;-79
2021/06/24 03:45:13;;;;;;;0.50;0.40;;;16.40;99.90;;;;;;5036305;28;20470;-80
2021/06/24 03:47:41;;;;;;;0.50;0.40;;;16.30;99.90;;;;;;5036245;28;21022;-80
2021/06/24 03:50:09;;;;;;;0.80;0.80;;;16.30;99.90;;;;;;5036119;28;20453;-81
2021/06/24 03:52:36;;;;;;;0.50;0.37;;;16.30;99.90;;;;;;5036674;28;20479;-80
2021/06/24 03:55:03;;;;;;;0.50;0.40;;;16.30;99.90;;;;;;5035631;28;20465;-80
2021/06/24 03:57:30;;;;;;;13.87;12.57;;;16.30;99.90;;;;;;5036664;28;20489;-79
2021/06/24 03:59:58;;;;;;;0.50;0.40;;;16.30;99.90;;;;;;5036836;28;20450;-81
2021/06/24 04:02:25;;;;;;;0.50;0.40;;;16.30;99.90;;;;;;5036704;28;20446;-80
2021/06/24 04:04:52;;;;;;;0.50;0.30;;;16.30;99.90;;;;;;5036537;28;20470;-78
2021/06/24 04:07:19;;;;;;;0.50;0.40;;;16.30;99.90;;;;;;5036789;28;20482;-79
2021/06/24 04:09:46;;;;;;;0.50;0.40;;;16.30;99.90;;;;;;5036989;28;20444;-80
2021/06/24 04:12:13;;;;;;;0.50;0.40;;;16.30;99.90;;;;;;5036626;28;20961;-79
2021/06/24 04:14:39;;;;;;;0.50;0.30;;;16.30;99.90;;;;;;5036528;28;20467;-81
2021/06/24 04:17:07;;;;;;;0.50;0.40;;;16.10;99.90;;;;;;5036729;28;20441;-79
2021/06/24 04:19:34;;;;;;;1.10;0.90;;;16.10;99.90;;;;;;5035966;28;20443;-81
2021/06/24 04:22:01;;;;;;;0.50;0.40;;;16.10;99.90;;;;;;5037276;28;21020;-79
2021/06/24 04:24:28;;;;;;;2.30;2.20;;;16.10;99.90;;;;;;5036908;28;20455;-80
2021/06/24 04:26:54;;;;;;;2.03;1.93;;;16.00;99.90;;;;;;5036282;28;20481;-79
2021/06/24 04:29:21;;;;;;;0.97;0.97;;;15.90;99.90;;;;;;5038229;28;20434;-81
2021/06/24 04:31:48;;;;;;;0.50;0.40;;;15.70;99.90;;;;;;5043771;28;20789;-79
2021/06/24 04:34:19;;;;;;;0.50;0.40;;;15.70;99.90;;;;;;5042770;28;20505;-79
2021/06/24 04:36:46;;;;;;;0.50;0.40;;;15.80;99.90;;;;;;5043618;28;20968;-80
2021/06/24 04:39:13;;;;;;;0.50;0.40;;;15.80;99.90;;;;;;5043859;28;20443;-80
2021/06/24 04:41:40;;;;;;;0.50;0.30;;;15.90;99.90;;;;;;5043238;28;20435;-79
2021/06/24 04:44:07;;;;;;;0.50;0.40;;;15.90;99.90;;;;;;5043287;28;20461;-79
2021/06/24 04:46:34;;;;;;;0.77;0.70;;;15.90;99.90;;;;;;5042579;28;20479;-79
2021/06/24 04:49:01;;;;;;;0.50;0.40;;;16.00;99.90;;;;;;5043752;28;20511;-78
2021/06/24 04:51:29;;;;;;;0.60;0.50;;;16.00;99.90;;;;;;5041519;28;20442;-80
2021/06/24 04:53:56;;;;;;;0.50;0.40;;;16.10;99.90;;;;;;5043807;28;20973;-79
2021/06/24 04:56:22;;;;;;;0.50;0.40;;;16.00;99.90;;;;;;5037383;28;20502;-80
2021/06/24 04:58:49;;;;;;;2.10;1.90;;;16.00;99.90;;;;;;5036246;28;20442;-81
2021/06/24 05:01:16;;;;;;;0.50;0.43;;;16.00;99.90;;;;;;5042539;28;20446;-79
2021/06/24 05:03:43;;;;;;;3.50;0.77;;;16.00;99.90;;;;;;5036119;28;20474;-80
2021/06/24 05:06:11;;;;;;;2.20;2.10;;;16.10;99.90;;;;;;5039644;28;20813;-81
2021/06/24 05:08:39;;;;;;;4.30;1.27;;;16.20;99.90;;;;;;5042274;28;20535;-80
2021/06/24 05:11:06;;;;;;;0.50;0.40;;;16.40;99.90;;;;;;5042132;28;20442;-79
2021/06/24 05:13:33;;;;;;;0.50;0.40;;;16.60;99.90;;;;;;5044261;28;20497;-80
2021/06/24 05:16:00;;;;;;;0.50;0.30;;;16.70;99.90;;;;;;5043842;28;20429;-81
2021/06/24 05:18:27;;;;;;;0.73;0.73;;;16.90;99.90;;;;;;5044265;28;20440;-80
2021/06/24 05:20:54;;;;;;;0.63;0.60;;;17.00;99.90;;;;;;5045835;28;20453;-80
2021/06/24 05:23:21;;;;;;;0.50;0.30;;;17.00;99.90;;;;;;5044213;28;20520;-79
2021/06/24 05:25:49;;;;;;;0.50;0.37;;;17.10;99.90;;;;;;5045079;28;20445;-79
2021/06/24 05:28:16;;;;;;;0.50;0.40;;;17.00;99.90;;;;;;5046148;28;20482;-81
2021/06/24 05:30:44;;;;;;;0.50;0.40;;;17.00;99.90;;;;;;5046831;28;20868;-81
2021/06/24 05:33:11;;;;;;;1.23;0.90;;;17.00;99.90;;;;;;5046157;28;20469;-80
2021/06/24 05:35:38;;;;;;;0.50;0.30;;;17.00;99.90;;;;;;5038906;28;20440;-80
2021/06/24 05:38:08;;;;;;;0.50;0.30;;;17.20;99.90;;;;;;5046211;28;20429;-82
2021/06/24 05:40:35;;;;;;;0.77;0.77;;;17.20;99.90;;;;;;5046747;28;20533;-81
2021/06/24 05:43:04;;;;;;;8.43;2.00;;;17.30;99.90;;;;;;5046251;28;20658;-81
2021/06/24 05:45:30;;;;;;;0.50;0.40;;;17.40;99.90;;;;;;5046692;28;20434;-82
2021/06/24 05:47:58;;;;;;;2.63;2.53;;;17.40;99.90;;;;;;5047017;28;20465;-80
2021/06/24 05:50:27;;;;;;;0.60;0.47;;;17.50;99.90;;;;;;5045435;28;20446;-82
2021/06/24 05:52:54;;;;;;;0.50;0.40;;;17.60;99.90;;;;;;5045564;28;20448;-78
2021/06/24 05:55:47;;;;;;;3.53;1.03;;;17.70;99.90;;;;;;5046004;28;20460;-80
2021/06/24 05:58:09;;;;;;;0.50;0.40;;;17.80;99.90;;;;;;5044057;28;20438;-79
2021/06/24 06:00:36;;;;;;;0.50;0.50;;;17.70;99.90;;;;;;5044258;28;20469;-80
2021/06/24 06:03:03;;;;;;;0.50;0.30;;;17.80;99.90;;;;;;5045460;28;20454;-82
2021/06/24 06:05:29;;;;;;;2.60;2.50;;;17.90;99.90;;;;;;5044881;28;20435;-80
2021/06/24 06:07:56;;;;;;;0.50;0.40;;;18.00;99.90;;;;;;5045064;28;20474;-81
2021/06/24 06:10:23;;;;;;;0.50;0.30;;;18.20;99.90;;;;;;5032459;28;20979;-82
2021/06/24 06:12:50;;;;;;;0.50;0.30;;;18.30;99.90;;;;;;5024945;28;20444;-80
2021/06/24 06:15:18;;;;;;;0.50;0.30;;;18.30;99.90;;;;;;5025688;28;20447;-81
2021/06/24 06:17:45;;;;;;;0.50;0.30;;;18.30;99.90;;;;;;5025033;28;20447;-81
2021/06/24 06:20:13;;;;;;;0.50;0.30;;;18.20;99.90;;;;;;5024598;28;20456;-81
2021/06/24 06:22:40;;;;;;;0.50;0.40;;;18.20;99.90;;;;;;5026080;28;20509;-80
2021/06/24 06:25:08;;;;;;;1.50;1.40;;;18.00;99.90;;;;;;5025528;28;20481;-80
2021/06/24 06:27:35;;;;;;;0.50;0.30;;;18.00;99.90;;;;;;5024066;28;20482;-79
2021/06/24 06:30:01;;;;;;;0.50;0.40;;;18.10;99.90;;;;;;5042218;28;20445;-77
2021/06/24 06:32:29;;;;;;;0.50;0.30;;;18.10;99.90;;;;;;5040813;28;20445;-80
2021/06/24 06:34:56;;;;;;;0.50;0.40;;;18.20;99.90;;;;;;5038334;28;20466;-79
2021/06/24 06:37:23;;;;;;;0.50;0.40;;;18.40;99.90;;;;;;5040174;28;20468;-79
2021/06/24 06:39:50;;;;;;;0.50;0.40;;;18.40;99.90;;;;;;5040545;28;20457;-79
2021/06/24 06:42:17;;;;;;;0.50;0.40;;;18.40;99.90;;;;;;5038975;28;20449;-79
2021/06/24 06:44:43;;;;;;;1.10;0.60;;;18.60;99.90;;;;;;5037871;28;20454;-80
2021/06/24 06:47:10;;;;;;;1.23;1.13;;;18.60;99.90;;;;;;5037845;28;20481;-80
2021/06/24 06:49:38;;;;;;;0.50;0.30;;;18.70;99.90;;;;;;5039586;28;20438;-79
2021/06/24 06:52:05;;;;;;;0.50;0.40;;;18.90;99.90;;;;;;5041772;28;20434;-77
2021/06/24 06:54:32;;;;;;;0.70;0.70;;;19.20;99.90;;;;;;5042844;28;20458;-80
2021/06/24 06:56:59;;;;;;;0.50;0.30;;;18.90;99.90;;;;;;5045891;28;20445;-79
2021/06/24 06:59:25;;;;;;;0.60;0.60;;;19.10;99.90;;;;;;5037200;28;20469;-81
2021/06/24 07:01:52;;;;;;;0.50;0.30;;;19.10;99.90;;;;;;5044431;28;20452;-79
2021/06/24 07:04:20;;;;;;;3.23;3.03;;;19.20;99.90;;;;;;5045424;28;20541;-79
2021/06/24 07:06:48;;;;;;;0.50;0.30;;;18.90;99.90;;;;;;5038766;28;20453;-80
2021/06/24 07:09:15;;;;;;;0.50;0.30;;;18.90;99.90;;;;;;5037207;28;20475;-80
2021/06/24 07:11:42;;;;;;;2.53;2.40;;;18.70;99.90;;;;;;5044175;28;20453;-79
2021/06/24 07:14:08;;;;;;;2.50;1.33;;;18.70;99.90;;;;;;5044091;28;20454;-80
2021/06/24 07:16:35;;;;;;;0.50;0.30;;;18.70;99.90;;;;;;5022911;28;20446;-79
2021/06/24 07:19:02;;;;;;;0.50;0.40;;;18.70;99.90;;;;;;5023598;28;20530;-78
2021/06/24 07:21:29;;;;;;;0.50;0.40;;;18.80;99.90;;;;;;5023542;28;20461;-81
2021/06/24 07:23:57;;;;;;;0.50;0.30;;;19.00;99.90;;;;;;5019546;28;20545;-80
2021/06/24 07:26:24;;;;;;;0.50;0.30;;;19.20;99.90;;;;;;5038619;28;20430;-77
2021/06/24 07:28:50;;;;;;;0.50;0.40;;;19.30;99.90;;;;;;5050033;28;20480;-79
2021/06/24 07:31:17;;;;;;;0.57;0.50;;;19.50;99.90;;;;;;5048073;28;20452;-78
2021/06/24 07:33:44;;;;;;;0.50;0.30;;;19.50;99.90;;;;;;5042896;28;20972;-80
2021/06/24 07:36:11;;;;;;;0.50;0.30;;;19.70;99.90;;;;;;5042391;28;20438;-78
2021/06/24 07:38:37;;;;;;;0.70;0.70;;;19.60;99.90;;;;;;5041040;28;20438;-79
2021/06/24 07:41:05;;;;;;;0.50;0.40;;;19.70;99.90;;;;;;5042803;28;20592;-78
2021/06/24 07:43:32;;;;;;;32.40;2.93;;;19.50;99.90;;;;;;5041914;28;20465;-79
2021/06/24 07:45:59;;;;;;;0.80;0.70;;;19.50;99.90;;;;;;5043501;28;20441;-80
2021/06/24 07:48:26;;;;;;;0.50;0.40;;;19.30;99.90;;;;;;5042229;28;20474;-80
2021/06/24 07:50:52;;;;;;;0.77;0.77;;;19.30;99.90;;;;;;5042868;28;20794;-79
2021/06/24 07:53:19;;;;;;;0.50;0.30;;;19.40;99.90;;;;;;5041920;28;20476;-81
2021/06/24 07:55:46;;;;;;;0.50;0.40;;;19.40;99.90;;;;;;5042508;28;20437;-78
2021/06/24 07:58:14;;;;;;;0.50;0.33;;;19.30;99.90;;;;;;5041896;28;20437;-79
2021/06/24 08:00:41;;;;;;;1.87;1.77;;;19.30;99.90;;;;;;5043514;28;20504;-80
2021/06/24 08:03:08;;;;;;;2.73;0.97;;;19.30;99.90;;;;;;5043416;28;20434;-80
2021/06/24 08:05:35;;;;;;;0.50;0.30;;;19.30;99.90;;;;;;5042306;28;20434;-80
2021/06/24 08:08:01;;;;;;;0.50;0.40;;;19.60;99.90;;;;;;5046917;28;20462;-79
2021/06/24 08:10:28;;;;;;;0.50;0.30;;;19.90;99.90;;;;;;5046445;28;20449;-78
2021/06/24 08:12:55;;;;;;;0.90;0.90;;;20.20;99.90;;;;;;5046765;28;20445;-79
2021/06/24 08:15:26;;;;;;;0.50;0.30;;;20.60;99.90;;;;;;5047428;28;20441;-79
2021/06/24 08:17:52;;;;;;;0.50;0.40;;;20.60;99.90;;;;;;5046083;28;20422;-81
2021/06/24 08:20:19;;;;;;;1.07;1.07;;;20.90;99.90;;;;;;5045313;28;20448;-80
2021/06/24 08:22:46;;;;;;;0.50;0.30;;;20.60;99.90;;;;;;5045894;28;20438;-79
2021/06/24 08:25:14;;;;;;;2.17;2.00;;;20.70;99.90;;;;;;5044039;28;20453;-79
2021/06/24 08:27:41;;;;;;;3.17;2.97;;;20.90;99.90;;;;;;5045646;28;20481;-76
2021/06/24 08:30:09;;;;;;;1.90;1.80;;;20.80;99.90;;;;;;5045117;28;20449;-80
2021/06/24 08:32:38;;;;;;;0.80;0.80;;;21.10;99.90;;;;;;5041699;28;20431;-79
2021/06/24 08:35:06;;;;;;;1.10;0.87;;;21.70;99.90;;;;;;5035939;28;20497;-78
2021/06/24 08:37:33;;;;;;;0.50;0.50;;;21.90;99.90;;;;;;5036841;28;20434;-79
2021/06/24 08:40:00;;;;;;;0.50;0.30;;;22.40;99.90;;;;;;5028139;28;20431;-79
2021/06/24 08:42:27;;;;;;;1.83;1.40;;;22.90;99.90;;;;;;5028243;28;20439;-80
2021/06/24 08:44:53;;;;;;;0.50;0.30;;;23.20;99.90;;;;;;5029535;28;20469;-79
2021/06/24 08:47:21;;;;;;;0.50;0.40;;;23.30;99.90;;;;;;5039767;28;20970;-79
2021/06/24 08:49:52;;;;;;;1.47;1.37;;;23.00;99.90;;;;;;5045573;28;20558;-80
2021/06/24 08:52:19;;;;;;;0.50;0.30;;;22.90;99.90;;;;;;5044092;28;20422;-78
2021/06/24 08:54:46;;;;;;;0.70;0.63;;;22.90;99.90;;;;;;5042383;28;20458;-79
2021/06/24 08:57:14;;;;;;;0.50;0.30;;;23.20;99.90;;;;;;5070064;22;20499;-80
2021/06/24 08:59:41;;;;;;;0.50;0.30;;;23.20;99.90;;;;;;5066530;28;20429;-78
2021/06/24 09:02:11;;;;;;;0.50;0.40;;;23.50;99.90;;;;;;5060931;28;20440;-79
2021/06/24 09:04:40;;;;;;;2.73;2.50;;;24.00;99.90;;;;;;5066626;28;20444;-80
2021/06/24 09:07:09;;;;;;;0.50;0.30;;;24.30;99.90;;;;;;5065590;28;20517;-81
2021/06/24 09:09:39;;;;;;;0.70;0.70;;;24.30;99.90;;;;;;5028038;28;20478;-80
2021/06/24 09:12:07;;;;;;;0.50;0.37;;;24.40;99.90;;;;;;5026551;28;20848;-79
2021/06/24 09:14:42;;;;;;;0.50;0.40;;;24.60;99.90;;;;;;5026170;28;20473;-80
2021/06/24 09:17:10;;;;;;;0.50;0.30;;;24.90;99.90;;;;;;5031566;28;20468;-79
2021/06/24 09:19:40;;;;;;;0.50;0.40;;;25.00;99.90;;;;;;5046102;28;20414;-80
2021/06/24 09:22:11;;;;;;;0.70;0.70;;;24.90;99.90;;;;;;5046488;28;20496;-80
2021/06/24 09:24:39;;;;;;;0.50;0.37;;;24.80;99.90;;;;;;5048140;28;20438;-81
2021/06/24 09:27:23;;;;;;;0.50;0.40;;;25.40;99.90;;;;;;5038334;28;20459;-80
2021/06/24 09:29:50;;;;;;;0.50;0.30;;;25.60;99.90;;;;;;5057961;28;20471;-80
2021/06/24 09:32:30;;;;;;;0.50;0.40;;;25.70;99.90;;;;;;5066005;28;20516;-80
2021/06/24 09:34:57;;;;;;;0.50;0.30;;;25.90;99.90;;;;;;5065716;28;20424;-79
2021/06/24 09:37:25;;;;;;;0.50;0.30;;;25.80;99.90;;;;;;5068078;28;20465;-80
2021/06/24 09:39:55;;;;;;;0.50;0.30;;;25.90;99.90;;;;;;5065233;28;20460;-79
2021/06/24 09:42:23;;;;;;;0.50;0.40;;;25.60;99.90;;;;;;5065902;28;20492;-80
2021/06/24 09:44:50;;;;;;;0.50;0.30;;;25.10;99.90;;;;;;5065908;28;20539;-81
2021/06/24 09:47:20;;;;;;;0.50;0.30;;;24.70;99.90;;;;;;5048554;28;20466;-81
2021/06/24 09:50:00;;;;;;;0.50;0.30;;;24.60;99.90;;;;;;5046454;28;20493;-81
2021/06/24 09:52:29;;;;;;;0.50;0.33;;;24.70;99.90;;;;;;5047255;28;20984;-80
2021/06/24 09:55:05;;;;;;;1.03;0.80;;;25.10;99.90;;;;;;5045894;28;20449;-79
2021/06/24 09:57:32;;;;;;;0.80;0.80;;;26.20;99.90;;;;;;5040369;28;20472;-81
2021/06/24 10:00:19;;;;;;;1.53;0.97;;;26.90;99.90;;;;;;5056899;28;20425;-81
2021/06/24 10:03:02;;;;;;;0.50;0.30;;;27.40;99.90;;;;;;5066689;28;20756;-79
2021/06/24 10:05:29;;;;;;;0.50;0.30;;;27.60;99.90;;;;;;5067330;28;20502;-81
2021/06/24 10:07:58;;;;;;;0.50;0.30;;;27.40;99.90;;;;;;5064736;28;20453;-81
2021/06/24 10:10:25;;;;;;;0.50;0.30;;;28.70;99.90;;;;;;5065404;28;20472;-82
2021/06/24 10:12:52;;;;;;;0.50;0.30;;;29.80;99.90;;;;;;5065274;28;20444;-80
2021/06/24 10:15:19;;;;;;;0.50;0.30;;;29.50;98.20;;;;;;5065549;28;20433;-81
2021/06/24 10:17:46;;;;;;;0.50;0.40;;;29.90;95.60;;;;;;5066025;28;20457;-81
2021/06/24 10:20:13;;;;;;;0.50;0.30;;;30.50;85.60;;;;;;5066521;28;20437;-80
2021/06/24 10:22:42;;;;;;;0.80;0.80;;;31.10;85.50;;;;;;5065821;28;20438;-82
2021/06/24 10:25:14;;;;;;;1.17;0.77;;;30.50;75.10;;;;;;5063973;28;20441;-80
2021/06/24 10:27:47;;;;;;;0.50;0.30;;;30.00;80.70;;;;;;5049130;28;20457;-80
2021/06/24 10:30:16;;;;;;;0.50;0.30;;;30.40;84.20;;;;;;5046322;28;20462;-81
2021/06/24 10:32:44;;;;;;;0.50;0.30;;;30.90;81.30;;;;;;5047184;28;20473;-80
2021/06/24 10:35:24;;;;;;;0.50;0.30;;;30.90;79.90;;;;;;5046110;28;20448;-79
2021/06/24 10:37:53;;;;;;;0.50;0.30;;;31.60;79.70;;;;;;5044655;28;20458;-80
2021/06/24 10:40:27;;;;;;;0.50;0.40;;;32.80;73.30;;;;;;5045920;28;20434;-81
2021/06/24 10:42:56;;;;;;;0.93;0.93;;;31.20;69.70;;;;;;5043911;28;20505;-81
2021/06/24 10:45:24;;;;;;;1.67;1.57;;;29.80;72.60;;;;;;5046430;28;20514;-80
2021/06/24 10:47:51;;;;;;;2.17;1.33;;;27.60;80.70;;;;;;5042529;28;20458;-78
2021/06/24 10:50:51;;;;;;;0.50;0.30;;;25.80;99.90;;;;;;5044520;28;20470;-81
2021/06/24 10:53:49;;;;;;;0.50;0.30;;;25.40;99.90;;;;;;5040494;28;20460;-81
2021/06/24 10:56:39;;;;;;;1.10;0.60;;;26.40;99.90;;;;;;4981594;28;20476;-79
2021/06/24 10:59:34;;;;;;;1.90;1.43;;;26.10;99.90;;;;;;5037301;28;20815;-79
2021/06/24 11:02:09;;;;;;;0.50;0.30;;;25.30;99.90;;;;;;5046684;28;20495;-83
2021/06/24 11:04:39;;;;;;;1.43;1.43;;;24.40;99.90;;;;;;5047105;28;20501;-81
2021/06/24 11:07:25;;;;;;;0.50;0.30;;;24.50;99.90;;;;;;5045877;28;20886;-81
2021/06/24 11:10:25;;;;;;;0.50;0.30;;;24.30;99.90;;;;;;5047196;28;20488;-82
2021/06/24 11:12:59;;;;;;;0.63;0.50;;;24.20;99.90;;;;;;5045735;28;20936;-81
2021/06/24 11:15:47;;;;;;;0.50;0.30;;;24.00;99.90;;;;;;5046957;28;20441;-81
2021/06/24 11:19:00;;;;;;;0.50;0.40;;;23.80;99.90;;;;;;5043256;28;20442;-80
2021/06/24 11:21:52;;;;;;;0.50;0.40;;;23.70;99.90;;;;;;5028203;28;20428;-82
2021/06/24 11:24:22;;;;;;;0.50;0.30;;;23.60;99.90;;;;;;5024619;28;20438;-81
2021/06/24 11:26:50;;;;;;;0.50;0.40;;;23.50;99.90;;;;;;5024907;28;20495;-81
2021/06/24 11:29:29;;;;;;;0.67;0.60;;;23.60;99.90;;;;;;5055513;28;20477;-81
2021/06/24 11:31:59;;;;;;;0.50;0.37;;;23.80;99.90;;;;;;5064645;28;20792;-81
2021/06/24 11:34:34;;;;;;;0.50;0.30;;;24.10;99.90;;;;;;5060004;28;20517;-82
2021/06/24 11:37:03;;;;;;;0.50;0.40;;;24.30;99.90;;;;;;5042152;28;20465;-82
2021/06/24 11:39:33;;;;;;;0.57;0.50;;;24.60;99.90;;;;;;5046636;28;20438;-81
2021/06/24 11:42:01;;;;;;;0.50;0.30;;;24.80;99.90;;;;;;5050289;28;20445;-80
2021/06/24 11:44:32;;;;;;;0.50;0.33;;;24.90;99.90;;;;;;5048436;28;20438;-79
2021/06/24 11:47:00;;;;;;;0.50;0.40;;;25.20;99.90;;;;;;5045760;28;20480;-79
2021/06/24 12:03:48;;;;;;;0.60;0.43;;;25.40;99.90;;;;;;5022822;28;20556;-80
2021/06/24 12:06:14;;;;;;;0.50;0.40;;;25.40;99.90;;;;;;5046990;28;20472;-82
2021/06/24 12:08:41;;;;;;;0.50;0.30;;;25.30;99.90;;;;;;5048664;28;20434;-80
2021/06/24 12:11:10;;;;;;;0.50;0.30;;;25.10;99.90;;;;;;5050631;28;20430;-81
2021/06/24 12:13:39;;;;;;;0.50;0.30;;;25.20;99.90;;;;;;5049670;28;20448;-81
2021/06/24 12:16:11;;;;;;;1.27;1.17;;;25.40;99.90;;;;;;5048287;28;20445;-79
2021/06/24 12:18:39;;;;;;;0.50;0.30;;;25.20;99.90;;;;;;5046845;28;20442;-80
2021/06/24 12:21:09;;;;;;;0.50;0.30;;;25.00;99.90;;;;;;5048169;28;20812;-82
2021/06/24 12:23:41;;;;;;;0.50;0.40;;;24.90;99.90;;;;;;5051598;28;20452;-82
2021/06/24 12:26:08;;;;;;;0.50;0.40;;;24.70;99.90;;;;;;5046450;28;20464;-79
2021/06/24 12:28:35;;;;;;;0.50;0.30;;;24.70;99.90;;;;;;5047372;28;20430;-80
2021/06/24 12:31:02;;;;;;;0.60;0.60;;;24.40;99.90;;;;;;5063289;28;20437;-83
2021/06/24 12:33:30;;;;;;;0.50;0.30;;;24.20;99.90;;;;;;5066868;28;20464;-79
2021/06/24 12:35:57;;;;;;;0.50;0.30;;;23.80;99.90;;;;;;5067111;28;20433;-83
2021/06/24 12:38:26;;;;;;;0.50;0.30;;;23.70;99.90;;;;;;5068648;28;20433;-81
2021/06/24 12:40:54;;;;;;;2.10;0.73;;;23.80;99.90;;;;;;5067947;28;20441;-81
2021/06/24 12:43:23;;;;;;;4.20;2.77;;;23.80;99.90;;;;;;5067129;28;20443;-82
2021/06/24 12:45:52;;;;;;;0.50;0.30;;;23.80;99.90;;;;;;5064581;28;20433;-79
2021/06/24 12:48:42;;;;;;;0.50;0.40;;;23.80;99.90;;;;;;5046116;28;20433;-80
2021/06/24 12:51:22;;;;;;;0.50;0.30;;;24.00;99.90;;;;;;5045424;28;21025;-80
2021/06/24 12:53:53;;;;;;;0.50;0.30;;;24.20;99.90;;;;;;5039652;28;20536;-81
2021/06/24 12:56:21;;;;;;;0.50;0.30;;;24.40;99.90;;;;;;5038323;28;20473;-77
2021/06/24 12:58:48;;;;;;;0.50;0.30;;;24.60;99.90;;;;;;5044121;28;20530;-80
2021/06/24 13:01:16;;;;;;;0.50;0.30;;;24.90;99.90;;;;;;5060644;28;20448;-80
2021/06/24 13:03:47;;;;;;;0.50;0.30;;;25.20;99.90;;;;;;5062563;28;20456;-81
2021/06/24 13:06:19;;;;;;;0.50;0.33;;;25.60;99.90;;;;;;5063114;28;20556;-80
2021/06/24 13:09:08;;;;;;;0.50;0.40;;;26.20;99.90;;;;;;5064063;28;20436;-81